createdAt,value
2016-08-05T00:00:51.151Z,0
2016-08-05T00:01:51.142Z,0
2016-08-05T00:02:51.146Z,0
2016-08-05T00:03:51.147Z,0
2016-08-05T00:04:51.136Z,0
2016-08-05T00:05:51.147Z,0
2016-08-05T00:06:51.142Z,0
2016-08-05T00:07:51.129Z,0
2016-08-05T00:08:51.129Z,0
2016-08-05T00:09:51.137Z,0
2016-08-05T00:10:51.132Z,0
2016-08-05T00:11:51.138Z,0
2016-08-05T00:12:51.131Z,0
2016-08-05T00:13:51.126Z,0
2016-08-05T00:14:51.136Z,0
2016-08-05T00:15:51.131Z,0
2016-08-05T00:16:51.131Z,0
2016-08-05T00:18:53.850Z,0
2016-08-05T00:20:52.494Z,0
2016-08-05T00:21:51.984Z,0
2016-08-05T00:22:51.126Z,0
2016-08-05T00:23:51.303Z,0
2016-08-05T00:24:51.125Z,0
2016-08-05T00:25:51.119Z,0
2016-08-05T00:26:53.829Z,0
2016-08-05T00:27:54.094Z,0
2016-08-05T00:28:53.790Z,0
2016-08-05T00:29:51.848Z,0
2016-08-05T00:30:51.790Z,0
2016-08-05T00:31:51.108Z,0
2016-08-05T00:32:51.825Z,0
2016-08-05T00:33:51.111Z,0
2016-08-05T00:34:51.117Z,0
2016-08-05T00:35:51.117Z,0
2016-08-05T00:36:51.104Z,0
2016-08-05T00:37:51.115Z,0
2016-08-05T00:38:51.114Z,0
2016-08-05T00:39:51.114Z,0
2016-08-05T00:40:51.109Z,0
2016-08-05T00:41:51.098Z,0
2016-08-05T00:42:51.109Z,0
2016-08-05T00:43:51.104Z,0
2016-08-05T00:44:51.093Z,0
2016-08-05T00:45:51.094Z,0
2016-08-05T00:46:51.094Z,0
2016-08-05T00:47:51.102Z,0
2016-08-05T00:48:51.098Z,0
2016-08-05T00:49:51.105Z,0
2016-08-05T00:50:51.097Z,0
2016-08-05T00:51:51.098Z,0
2016-08-05T00:52:51.088Z,0
2016-08-05T00:53:51.096Z,0
2016-08-05T00:54:51.090Z,0
2016-08-05T00:55:51.079Z,0
2016-08-05T00:56:51.081Z,0
2016-08-05T00:57:52.783Z,0
2016-08-05T00:58:52.833Z,0
2016-08-05T01:00:06.392Z,0
2016-08-05T01:00:51.636Z,0
2016-08-05T01:01:51.682Z,0
2016-08-05T01:02:51.078Z,0
2016-08-05T01:03:51.071Z,0
2016-08-05T01:04:51.077Z,0
2016-08-05T01:05:51.080Z,0
2016-08-05T01:06:51.671Z,0
2016-08-05T01:07:52.170Z,0
2016-08-05T01:08:51.057Z,0
2016-08-05T01:09:51.476Z,0
2016-08-05T01:11:51.367Z,0
2016-08-05T01:12:51.057Z,0
2016-08-05T01:13:51.281Z,0
2016-08-05T01:14:51.059Z,0
2016-08-05T01:15:51.052Z,0
2016-08-05T01:16:51.060Z,0
2016-08-05T01:17:51.048Z,0
2016-08-05T01:18:51.050Z,0
2016-08-05T01:19:51.050Z,0
2016-08-05T01:20:51.040Z,0
2016-08-05T01:21:51.042Z,0
2016-08-05T01:22:51.044Z,0
2016-08-05T01:23:51.042Z,0
2016-08-05T01:24:51.063Z,0
2016-08-05T01:25:51.037Z,0
2016-08-05T01:26:51.037Z,0
2016-08-05T01:27:51.032Z,0
2016-08-05T01:28:51.030Z,0
2016-08-05T01:29:51.042Z,0
2016-08-05T01:30:51.035Z,0
2016-08-05T01:31:51.031Z,0
2016-08-05T01:32:51.024Z,0
2016-08-05T01:33:51.023Z,0
2016-08-05T01:34:51.028Z,0
2016-08-05T01:35:53.358Z,0
2016-08-05T01:36:54.250Z,0
2016-08-05T01:37:51.023Z,0
2016-08-05T01:38:52.769Z,0
2016-08-05T01:39:51.022Z,0
2016-08-05T01:40:51.016Z,0
2016-08-05T01:41:51.309Z,0
2016-08-05T01:42:51.018Z,0
2016-08-05T01:43:51.014Z,0
2016-08-05T01:45:51.791Z,0
2016-08-05T01:46:52.452Z,0
2016-08-05T01:47:51.567Z,0
2016-08-05T01:48:52.420Z,0
2016-08-05T01:49:52.130Z,0
2016-08-05T01:50:51.529Z,0
2016-08-05T01:51:50.998Z,0
2016-08-05T01:52:50.999Z,0
2016-08-05T01:53:50.998Z,0
2016-08-05T01:54:50.983Z,0
2016-08-05T01:55:50.990Z,0
2016-08-05T01:56:50.990Z,0
2016-08-05T01:57:51.003Z,0
2016-08-05T01:58:50.984Z,0
2016-08-05T01:59:50.982Z,0
2016-08-05T02:00:51.076Z,0
2016-08-05T02:01:50.967Z,0
2016-08-05T02:02:50.979Z,0
2016-08-05T02:03:50.970Z,0
2016-08-05T02:04:50.977Z,0
2016-08-05T02:05:50.964Z,0
2016-08-05T02:06:50.969Z,0
2016-08-05T02:07:50.958Z,0
2016-08-05T02:08:50.959Z,0
2016-08-05T02:09:50.963Z,0
2016-08-05T02:10:50.955Z,0
2016-08-05T02:11:50.957Z,0
2016-08-05T02:12:50.957Z,0
2016-08-05T02:13:50.946Z,0
2016-08-05T02:14:50.947Z,0
2016-08-05T02:17:06.617Z,0
2016-08-05T02:17:52.142Z,0
2016-08-05T02:18:51.554Z,0
2016-08-05T02:19:50.940Z,0
2016-08-05T02:20:50.946Z,0
2016-08-05T02:21:50.923Z,0
2016-08-05T02:22:51.130Z,0
2016-08-05T02:23:50.924Z,0
2016-08-05T02:24:52.583Z,0
2016-08-05T02:25:51.218Z,0
2016-08-05T02:26:51.679Z,0
2016-08-05T02:27:51.368Z,0
2016-08-05T02:28:50.926Z,0
2016-08-05T02:29:50.914Z,0
2016-08-05T02:30:50.918Z,0
2016-08-05T02:31:50.920Z,0
2016-08-05T02:32:50.910Z,0
2016-08-05T02:33:51.591Z,0
2016-08-05T02:34:50.929Z,0
2016-08-05T02:35:50.900Z,0
2016-08-05T02:36:50.903Z,0
2016-08-05T02:37:50.893Z,0
2016-08-05T02:38:50.897Z,0
2016-08-05T02:39:50.898Z,0
2016-08-05T02:40:51.589Z,0
2016-08-05T02:41:50.893Z,0
2016-08-05T02:42:50.876Z,0
2016-08-05T02:43:50.879Z,0
2016-08-05T02:44:50.882Z,0
2016-08-05T02:45:50.878Z,0
2016-08-05T02:46:50.876Z,0
2016-08-05T02:47:50.876Z,0
2016-08-05T02:48:50.869Z,0
2016-08-05T02:49:50.871Z,0
2016-08-05T02:50:50.865Z,0
2016-08-05T02:51:50.861Z,0
2016-08-05T02:52:50.867Z,0
2016-08-05T02:53:50.857Z,0
2016-08-05T02:54:50.872Z,0
2016-08-05T02:55:50.857Z,0
2016-08-05T02:56:50.859Z,0
2016-08-05T02:57:50.848Z,0
2016-08-05T02:58:50.837Z,0
2016-08-05T02:59:50.852Z,0
2016-08-05T03:00:50.871Z,0
2016-08-05T03:01:50.836Z,0
2016-08-05T03:02:50.836Z,0
2016-08-05T03:03:50.834Z,0
2016-08-05T03:04:50.831Z,0
2016-08-05T03:05:50.834Z,4
2016-08-05T03:06:50.835Z,4
2016-08-05T03:07:50.831Z,4
2016-08-05T03:08:50.814Z,4
2016-08-05T03:09:50.828Z,8
2016-08-05T03:10:50.819Z,4
2016-08-05T03:11:50.807Z,4
2016-08-05T03:12:50.816Z,8
2016-08-05T03:13:50.804Z,8
2016-08-05T03:14:50.813Z,4
2016-08-05T03:15:50.798Z,8
2016-08-05T03:16:50.800Z,12
2016-08-05T03:17:50.797Z,12
2016-08-05T03:18:50.801Z,12
2016-08-05T03:19:50.792Z,16
2016-08-05T03:20:50.790Z,16
2016-08-05T03:21:50.791Z,16
2016-08-05T03:22:50.784Z,12
2016-08-05T03:23:50.790Z,12
2016-08-05T03:24:50.774Z,16
2016-08-05T03:25:50.777Z,16
2016-08-05T03:26:50.771Z,20
2016-08-05T03:27:50.766Z,24
2016-08-05T03:28:50.777Z,24
2016-08-05T03:29:50.769Z,24
2016-08-05T03:30:50.763Z,20
2016-08-05T03:31:50.760Z,20
2016-08-05T03:32:50.752Z,16
2016-08-05T03:34:06.530Z,20
2016-08-05T03:35:05.823Z,24
2016-08-05T03:37:50.946Z,36
2016-08-05T03:38:50.749Z,44
2016-08-05T03:39:50.748Z,48
2016-08-05T03:40:50.740Z,52
2016-08-05T03:41:50.737Z,48
2016-08-05T03:42:51.188Z,48
2016-08-05T03:44:06.009Z,48
2016-08-05T03:44:51.381Z,52
2016-08-05T03:45:51.332Z,60
2016-08-05T03:46:50.732Z,68
2016-08-05T03:47:50.720Z,76
2016-08-05T03:48:50.736Z,88
2016-08-05T03:49:50.869Z,92
2016-08-05T03:50:50.717Z,96
2016-08-05T03:51:50.713Z,100
2016-08-05T03:52:50.713Z,104
2016-08-05T03:53:51.840Z,112
2016-08-05T03:54:53.176Z,116
2016-08-05T03:55:51.002Z,128
2016-08-05T03:56:50.768Z,136
2016-08-05T03:57:52.222Z,144
2016-08-05T03:58:50.699Z,156
2016-08-05T03:59:50.693Z,168
2016-08-05T04:00:50.786Z,188
2016-08-05T04:01:50.687Z,208
2016-08-05T04:02:52.912Z,224
2016-08-05T04:03:50.759Z,236
2016-08-05T04:04:52.594Z,248
2016-08-05T04:05:52.599Z,264
2016-08-05T04:06:51.337Z,264
2016-08-05T04:07:50.670Z,244
2016-08-05T04:08:50.675Z,220
2016-08-05T04:09:50.667Z,236
2016-08-05T04:10:50.672Z,280
2016-08-05T04:11:50.670Z,332
2016-08-05T04:12:50.655Z,372
2016-08-05T04:13:50.657Z,396
2016-08-05T04:14:50.661Z,408
2016-08-05T04:15:50.650Z,408
2016-08-05T04:16:50.661Z,408
2016-08-05T04:17:50.649Z,400
2016-08-05T04:18:50.647Z,388
2016-08-05T04:19:51.337Z,376
2016-08-05T04:20:50.648Z,356
2016-08-05T04:21:50.642Z,316
2016-08-05T04:22:50.639Z,292
2016-08-05T04:23:51.329Z,280
2016-08-05T04:24:50.644Z,260
2016-08-05T04:26:51.316Z,304
2016-08-05T04:27:50.616Z,316
2016-08-05T04:28:50.615Z,348
2016-08-05T04:29:50.618Z,404
2016-08-05T04:30:50.617Z,452
2016-08-05T04:31:50.614Z,484
2016-08-05T04:32:51.315Z,500
2016-08-05T04:33:50.602Z,488
2016-08-05T04:34:50.606Z,476
2016-08-05T04:35:50.608Z,456
2016-08-05T04:36:50.594Z,436
2016-08-05T04:37:50.595Z,432
2016-08-05T04:38:50.601Z,432
2016-08-05T04:39:50.584Z,436
2016-08-05T04:41:50.598Z,468
2016-08-05T04:42:50.582Z,484
2016-08-05T04:43:50.569Z,496
2016-08-05T04:44:50.579Z,500
2016-08-05T04:45:50.581Z,508
2016-08-05T04:46:50.570Z,516
2016-08-05T04:47:50.572Z,528
2016-08-05T04:48:50.567Z,532
2016-08-05T04:49:50.571Z,552
2016-08-05T04:50:50.566Z,572
2016-08-05T04:51:50.557Z,596
2016-08-05T04:53:05.783Z,604
2016-08-05T04:54:06.824Z,616
2016-08-05T04:54:51.493Z,624
2016-08-05T04:57:05.610Z,644
2016-08-05T04:57:50.558Z,648
2016-08-05T04:58:50.641Z,656
2016-08-05T04:59:50.536Z,632
2016-08-05T05:00:50.534Z,696
2016-08-05T05:01:51.744Z,724
2016-08-05T05:02:51.197Z,728
2016-08-05T05:03:51.270Z,732
2016-08-05T05:04:51.568Z,720
2016-08-05T05:05:51.418Z,692
2016-08-05T05:06:50.866Z,684
2016-08-05T05:07:50.514Z,700
2016-08-05T05:08:50.512Z,696
2016-08-05T05:09:50.514Z,712
2016-08-05T05:11:53.108Z,740
2016-08-05T05:12:51.676Z,748
2016-08-05T05:13:50.551Z,752
2016-08-05T05:14:51.250Z,756
2016-08-05T05:15:51.489Z,780
2016-08-05T05:16:50.492Z,812
2016-08-05T05:17:51.059Z,844
2016-08-05T05:18:50.928Z,876
2016-08-05T05:19:50.486Z,904
2016-08-05T05:20:50.489Z,944
2016-08-05T05:22:52.375Z,1004
2016-08-05T05:23:50.481Z,1052
2016-08-05T05:24:50.933Z,1072
2016-08-05T05:25:50.470Z,1128
2016-08-05T05:26:51.488Z,1172
2016-08-05T05:27:50.476Z,1180
2016-08-05T05:28:50.466Z,1184
2016-08-05T05:29:50.456Z,1204
2016-08-05T05:30:50.464Z,1244
2016-08-05T05:31:50.456Z,1280
2016-08-05T05:32:50.456Z,1280
2016-08-05T05:33:50.446Z,1276
2016-08-05T05:34:50.445Z,1276
2016-08-05T05:35:50.439Z,1280
2016-08-05T05:36:50.452Z,1280
2016-08-05T05:37:50.437Z,1288
2016-08-05T05:38:50.431Z,1296
2016-08-05T05:39:50.433Z,1328
2016-08-05T05:40:50.438Z,1384
2016-08-05T05:41:50.436Z,1468
2016-08-05T05:42:50.429Z,1560
2016-08-05T05:43:50.427Z,1668
2016-08-05T05:44:50.433Z,1792
2016-08-05T05:45:50.434Z,1936
2016-08-05T05:46:50.417Z,2064
2016-08-05T05:47:50.411Z,2228
2016-08-05T05:48:50.414Z,2264
2016-08-05T05:49:50.415Z,2444
2016-08-05T05:50:50.404Z,2484
2016-08-05T05:51:50.402Z,2508
2016-08-05T05:52:50.405Z,2524
2016-08-05T05:53:50.401Z,2580
2016-08-05T05:54:50.403Z,2596
2016-08-05T05:55:50.394Z,2568
2016-08-05T05:56:50.396Z,2492
2016-08-05T05:57:50.398Z,2416
2016-08-05T05:58:50.388Z,2344
2016-08-05T05:59:50.386Z,2340
2016-08-05T06:00:50.486Z,2336
2016-08-05T06:01:50.393Z,2368
2016-08-05T06:02:50.395Z,2420
2016-08-05T06:03:50.384Z,2560
2016-08-05T06:04:50.376Z,2700
2016-08-05T06:05:50.371Z,2816
2016-08-05T06:06:50.366Z,2828
2016-08-05T06:07:50.358Z,2836
2016-08-05T06:08:50.365Z,2808
2016-08-05T06:09:50.362Z,2784
2016-08-05T06:10:51.203Z,2808
2016-08-05T06:11:50.368Z,2784
2016-08-05T06:12:50.994Z,2796
2016-08-05T06:14:05.860Z,2792
2016-08-05T06:14:50.858Z,2856
2016-08-05T06:15:50.349Z,2884
2016-08-05T06:16:50.335Z,2924
2016-08-05T06:17:50.344Z,2956
2016-08-05T06:18:50.338Z,2944
2016-08-05T06:19:52.480Z,2884
2016-08-05T06:20:50.581Z,2872
2016-08-05T06:21:50.933Z,2904
2016-08-05T06:23:51.273Z,3032
2016-08-05T06:24:51.072Z,3064
2016-08-05T06:25:50.465Z,3104
2016-08-05T06:26:50.320Z,3092
2016-08-05T06:27:50.313Z,3060
2016-08-05T06:28:50.318Z,3036
2016-08-05T06:29:50.325Z,3068
2016-08-05T06:30:53.246Z,3164
2016-08-05T06:31:52.946Z,3348
2016-08-05T06:32:51.122Z,3468
2016-08-05T06:33:52.453Z,3568
2016-08-05T06:34:50.294Z,3620
2016-08-05T06:35:51.208Z,3644
2016-08-05T06:36:50.283Z,3668
2016-08-05T06:37:50.292Z,3716
2016-08-05T06:38:50.289Z,3808
2016-08-05T06:39:53.405Z,3920
2016-08-05T06:40:53.376Z,4076
2016-08-05T06:41:50.298Z,4228
2016-08-05T06:42:52.057Z,4328
2016-08-05T06:43:50.274Z,4400
2016-08-05T06:44:50.281Z,4488
2016-08-05T06:45:50.613Z,4488
2016-08-05T06:46:50.269Z,4512
2016-08-05T06:47:50.267Z,4460
2016-08-05T06:48:50.262Z,4488
2016-08-05T06:49:50.249Z,4520
2016-08-05T06:50:50.263Z,4496
2016-08-05T06:51:50.273Z,4528
2016-08-05T06:52:50.250Z,4564
2016-08-05T06:53:50.245Z,4696
2016-08-05T06:54:50.254Z,4776
2016-08-05T06:55:50.243Z,4876
2016-08-05T06:56:50.242Z,5040
2016-08-05T06:57:50.253Z,5252
2016-08-05T06:58:50.239Z,5532
2016-08-05T06:59:50.232Z,5800
2016-08-05T07:00:50.288Z,5968
2016-08-05T07:01:50.236Z,5868
2016-08-05T07:02:50.241Z,5772
2016-08-05T07:03:50.243Z,5836
2016-08-05T07:04:50.221Z,5908
2016-08-05T07:05:50.230Z,5988
2016-08-05T07:06:50.222Z,6052
2016-08-05T07:07:50.218Z,6084
2016-08-05T07:08:50.214Z,6160
2016-08-05T07:09:50.219Z,6224
2016-08-05T07:10:50.217Z,6276
2016-08-05T07:11:50.912Z,6320
2016-08-05T07:12:50.208Z,6308
2016-08-05T07:13:50.204Z,6272
2016-08-05T07:14:50.197Z,6284
2016-08-05T07:15:50.199Z,6420
2016-08-05T07:16:50.196Z,6704
2016-08-05T07:17:50.204Z,7000
2016-08-05T07:18:50.200Z,7244
2016-08-05T07:19:50.195Z,7484
2016-08-05T07:20:50.196Z,7664
2016-08-05T07:21:50.190Z,7760
2016-08-05T07:22:50.191Z,7768
2016-08-05T07:23:50.189Z,7744
2016-08-05T07:24:50.190Z,7680
2016-08-05T07:25:50.181Z,7672
2016-08-05T07:26:50.186Z,7540
2016-08-05T07:27:50.894Z,7320
2016-08-05T07:29:05.642Z,7032
2016-08-05T07:29:50.583Z,6896
2016-08-05T07:32:50.173Z,6816
2016-08-05T07:33:50.771Z,6896
2016-08-05T07:34:50.466Z,6980
2016-08-05T07:35:50.173Z,7032
2016-08-05T07:36:50.166Z,7080
2016-08-05T07:38:06.183Z,7292
2016-08-05T07:38:51.120Z,7464
2016-08-05T07:39:50.770Z,7692
2016-08-05T07:41:50.415Z,7992
2016-08-05T07:42:50.158Z,8112
2016-08-05T07:43:50.156Z,8220
2016-08-05T07:44:50.361Z,8176
2016-08-05T07:45:50.261Z,8040
2016-08-05T07:46:50.155Z,7920
2016-08-05T07:47:50.164Z,7860
2016-08-05T07:48:52.759Z,7864
2016-08-05T07:50:51.261Z,7912
2016-08-05T07:51:50.443Z,7968
2016-08-05T07:52:51.333Z,7952
2016-08-05T07:53:50.154Z,7844
2016-08-05T07:54:50.148Z,7680
2016-08-05T07:55:50.155Z,7492
2016-08-05T07:56:50.152Z,7292
2016-08-05T07:57:51.132Z,6988
2016-08-05T07:58:52.428Z,6832
2016-08-05T07:59:50.294Z,6760
2016-08-05T08:00:50.247Z,6720
2016-08-05T08:01:51.481Z,6648
2016-08-05T08:02:50.135Z,6568
2016-08-05T08:03:50.141Z,6568
2016-08-05T08:04:50.139Z,6480
2016-08-05T08:05:50.142Z,6244
2016-08-05T08:06:50.139Z,6012
2016-08-05T08:07:50.147Z,5860
2016-08-05T08:08:50.135Z,5724
2016-08-05T08:09:50.161Z,5532
2016-08-05T08:10:50.123Z,5164
2016-08-05T08:11:50.134Z,4668
2016-08-05T08:12:50.135Z,4248
2016-08-05T08:13:50.121Z,4000
2016-08-05T08:14:50.131Z,3776
2016-08-05T08:15:50.820Z,3688
2016-08-05T08:16:50.125Z,3724
2016-08-05T08:17:50.129Z,3764
2016-08-05T08:18:56.766Z,3760
2016-08-05T08:19:50.120Z,3848
2016-08-05T08:20:50.115Z,3972
2016-08-05T08:21:50.119Z,4144
2016-08-05T08:22:50.116Z,4316
2016-08-05T08:23:50.114Z,4528
2016-08-05T08:24:50.107Z,4736
2016-08-05T08:25:50.123Z,4996
2016-08-05T08:26:50.111Z,5388
2016-08-05T08:27:50.123Z,5840
2016-08-05T08:28:50.113Z,6248
2016-08-05T08:29:50.112Z,6644
2016-08-05T08:30:50.104Z,7100
2016-08-05T08:31:50.102Z,7544
2016-08-05T08:32:50.118Z,8364
2016-08-05T08:33:50.116Z,9296
2016-08-05T08:34:50.099Z,10356
2016-08-05T08:35:50.094Z,11124
2016-08-05T08:36:50.102Z,11672
2016-08-05T08:37:50.097Z,12096
2016-08-05T08:38:50.098Z,12388
2016-08-05T08:39:50.093Z,12648
2016-08-05T08:40:50.101Z,12832
2016-08-05T08:41:50.103Z,13100
2016-08-05T08:42:50.096Z,13448
2016-08-05T08:43:50.094Z,13724
2016-08-05T08:44:50.095Z,13744
2016-08-05T08:45:50.085Z,13628
2016-08-05T08:46:51.694Z,13384
2016-08-05T08:48:05.466Z,12832
2016-08-05T08:48:51.545Z,12448
2016-08-05T08:49:50.399Z,12100
2016-08-05T08:50:50.644Z,12132
2016-08-05T08:51:50.937Z,12380
2016-08-05T08:52:50.775Z,12884
2016-08-05T08:53:50.083Z,13752
2016-08-05T08:54:50.089Z,14972
2016-08-05T08:55:51.183Z,16160
2016-08-05T08:58:50.084Z,17216
2016-08-05T08:59:50.382Z,16992
2016-08-05T09:00:50.082Z,16864
2016-08-05T09:01:50.839Z,17024
2016-08-05T09:02:50.089Z,17536
2016-08-05T09:03:50.091Z,18016
2016-08-05T09:04:50.085Z,18240
2016-08-05T09:05:50.085Z,18016
2016-08-05T09:06:50.718Z,17696
2016-08-05T09:07:52.867Z,17824
2016-08-05T09:08:51.113Z,18144
2016-08-05T09:09:51.274Z,18560
2016-08-05T09:10:51.002Z,19232
2016-08-05T09:11:50.096Z,20064
2016-08-05T09:12:50.100Z,20832
2016-08-05T09:13:50.096Z,21248
2016-08-05T09:14:50.219Z,21216
2016-08-05T09:16:51.595Z,20224
2016-08-05T09:17:50.341Z,19712
2016-08-05T09:18:51.028Z,19360
2016-08-05T09:19:51.229Z,19168
2016-08-05T09:20:50.103Z,19552
2016-08-05T09:21:50.679Z,20448
2016-08-05T09:22:50.458Z,21728
2016-08-05T09:23:50.101Z,22720
2016-08-05T09:24:50.098Z,23392
2016-08-05T09:25:50.114Z,23424
2016-08-05T09:26:50.118Z,23072
2016-08-05T09:27:50.103Z,21760
2016-08-05T09:28:50.114Z,20256
2016-08-05T09:29:50.116Z,19744
2016-08-05T09:30:50.121Z,19968
2016-08-05T09:31:50.114Z,20128
2016-08-05T09:32:50.123Z,20288
2016-08-05T09:33:50.124Z,21056
2016-08-05T09:34:50.126Z,21504
2016-08-05T09:35:50.128Z,21920
2016-08-05T09:36:50.128Z,22560
2016-08-05T09:37:50.129Z,23072
2016-08-05T09:38:50.138Z,23040
2016-08-05T09:39:50.139Z,22752
2016-08-05T09:40:50.141Z,22560
2016-08-05T09:41:50.148Z,22592
2016-08-05T09:42:50.148Z,22336
2016-08-05T09:43:50.149Z,21312
2016-08-05T09:44:50.159Z,20224
2016-08-05T09:45:50.146Z,19104
2016-08-05T09:46:50.155Z,18336
2016-08-05T09:47:50.167Z,17408
2016-08-05T09:48:50.159Z,16800
2016-08-05T09:49:50.184Z,16128
2016-08-05T09:50:50.185Z,16160
2016-08-05T09:51:50.180Z,16576
2016-08-05T09:52:50.177Z,17248
2016-08-05T09:53:50.179Z,17184
2016-08-05T09:54:50.180Z,17216
2016-08-05T09:55:50.195Z,17792
2016-08-05T09:56:50.207Z,18528
2016-08-05T09:57:50.191Z,18784
2016-08-05T09:58:50.191Z,20096
2016-08-05T09:59:51.196Z,22848
2016-08-05T10:00:50.200Z,25632
2016-08-05T10:01:50.206Z,27200
2016-08-05T10:02:50.219Z,27840
2016-08-05T10:03:50.218Z,27552
2016-08-05T10:04:50.217Z,25824
2016-08-05T10:05:51.980Z,24416
2016-08-05T10:06:50.230Z,24576
2016-08-05T10:07:50.823Z,23552
2016-08-05T10:08:50.226Z,21952
2016-08-05T10:09:50.237Z,21664
2016-08-05T10:10:51.234Z,22784
2016-08-05T10:11:50.232Z,24672
2016-08-05T10:12:50.244Z,24928
2016-08-05T10:13:50.253Z,22400
2016-08-05T10:14:50.307Z,21024
2016-08-05T10:16:05.224Z,21696
2016-08-05T10:17:06.232Z,22624
2016-08-05T10:17:50.514Z,21632
2016-08-05T10:19:05.200Z,20864
2016-08-05T10:19:50.432Z,21024
2016-08-05T10:20:50.281Z,21952
2016-08-05T10:21:50.987Z,22624
2016-08-05T10:22:50.293Z,24768
2016-08-05T10:23:50.305Z,25824
2016-08-05T10:25:51.633Z,25216
2016-08-05T10:26:50.920Z,25664
2016-08-05T10:27:52.088Z,25920
2016-08-05T10:28:50.318Z,25792
2016-08-05T10:29:50.328Z,25536
2016-08-05T10:30:51.269Z,25824
2016-08-05T10:31:50.337Z,27680
2016-08-05T10:32:50.337Z,29952
2016-08-05T10:33:50.341Z,31776
2016-08-05T10:34:51.867Z,32000
2016-08-05T10:35:50.359Z,30816
2016-08-05T10:36:51.917Z,28896
2016-08-05T10:37:50.371Z,28576
2016-08-05T10:38:50.374Z,29088
2016-08-05T10:39:51.368Z,30016
2016-08-05T10:40:50.393Z,30688
2016-08-05T10:41:50.381Z,30880
2016-08-05T10:42:50.388Z,30112
2016-08-05T10:43:50.407Z,30080
2016-08-05T10:44:50.409Z,32128
2016-08-05T10:45:50.414Z,33792
2016-08-05T10:46:51.115Z,34400
2016-08-05T10:47:50.444Z,33376
2016-08-05T10:48:50.427Z,31520
2016-08-05T10:49:50.444Z,30624
2016-08-05T10:50:50.453Z,30528
2016-08-05T10:51:51.147Z,29952
2016-08-05T10:52:50.462Z,27872
2016-08-05T10:53:50.468Z,24416
2016-08-05T10:54:50.483Z,20768
2016-08-05T10:55:50.481Z,17568
2016-08-05T10:57:50.493Z,17056
2016-08-05T10:58:50.501Z,19616
2016-08-05T10:59:50.511Z,22048
2016-08-05T11:00:50.527Z,22368
2016-08-05T11:01:50.533Z,22368
2016-08-05T11:02:50.538Z,24256
2016-08-05T11:03:50.540Z,26976
2016-08-05T11:04:50.543Z,29344
2016-08-05T11:05:50.552Z,30336
2016-08-05T11:06:50.557Z,30240
2016-08-05T11:07:50.566Z,30688
2016-08-05T11:08:50.570Z,31232
2016-08-05T11:09:50.577Z,30752
2016-08-05T11:10:50.582Z,30560
2016-08-05T11:12:50.597Z,30400
2016-08-05T11:13:50.615Z,28864
2016-08-05T11:14:50.614Z,26528
2016-08-05T11:15:50.621Z,24672
2016-08-05T11:16:52.030Z,23968
2016-08-05T11:17:50.637Z,24096
2016-08-05T11:18:50.636Z,23040
2016-08-05T11:19:50.649Z,22464
2016-08-05T11:20:50.653Z,22368
2016-08-05T11:21:50.667Z,23296
2016-08-05T11:22:50.665Z,25504
2016-08-05T11:23:51.388Z,27488
2016-08-05T11:24:52.041Z,28288
2016-08-05T11:27:51.257Z,24608
2016-08-05T11:28:50.719Z,23776
2016-08-05T11:29:50.730Z,23104
2016-08-05T11:30:50.723Z,23296
2016-08-05T11:31:50.739Z,24416
2016-08-05T11:32:51.840Z,25728
2016-08-05T11:33:51.697Z,26464
2016-08-05T11:36:52.178Z,23936
2016-08-05T11:37:50.835Z,23488
2016-08-05T11:38:51.293Z,23968
2016-08-05T11:39:50.796Z,25408
2016-08-05T11:40:50.805Z,26784
2016-08-05T11:41:50.815Z,27904
2016-08-05T11:42:50.811Z,28736
2016-08-05T11:43:52.238Z,29088
2016-08-05T11:44:52.262Z,27648
2016-08-05T11:45:52.110Z,26016
2016-08-05T11:46:52.433Z,24640
2016-08-05T11:47:50.853Z,23232
2016-08-05T11:48:50.861Z,21632
2016-08-05T11:49:50.875Z,19584
2016-08-05T11:50:50.983Z,20064
2016-08-05T11:51:50.890Z,21216
2016-08-05T11:52:52.419Z,21152
2016-08-05T11:53:51.350Z,21632
2016-08-05T11:54:53.743Z,22464
2016-08-05T11:55:52.505Z,23040
2016-08-05T11:56:51.615Z,23072
2016-08-05T11:57:50.925Z,23872
2016-08-05T11:58:50.945Z,24960
2016-08-05T11:59:50.943Z,25600
2016-08-05T12:00:50.950Z,24800
2016-08-05T12:01:50.955Z,24032
2016-08-05T12:02:50.968Z,23648
2016-08-05T12:03:50.987Z,23264
2016-08-05T12:04:50.986Z,23168
2016-08-05T12:05:50.983Z,23488
2016-08-05T12:06:50.993Z,23936
2016-08-05T12:07:50.999Z,24192
2016-08-05T12:08:51.004Z,23776
2016-08-05T12:09:51.023Z,22784
2016-08-05T12:10:51.019Z,21824
2016-08-05T12:11:51.728Z,20864
2016-08-05T12:12:51.046Z,20800
2016-08-05T12:13:51.045Z,21312
2016-08-05T12:14:51.062Z,21920
2016-08-05T12:15:51.060Z,22880
2016-08-05T12:16:51.081Z,23872
2016-08-05T12:17:51.086Z,24288
2016-08-05T12:18:51.784Z,25408
2016-08-05T12:19:51.091Z,26560
2016-08-05T12:20:51.104Z,26496
2016-08-05T12:21:51.106Z,25632
2016-08-05T12:22:51.124Z,23968
2016-08-05T12:23:51.142Z,21856
2016-08-05T12:24:51.133Z,20768
2016-08-05T12:25:51.137Z,18848
2016-08-05T12:26:51.156Z,16608
2016-08-05T12:27:51.159Z,16768
2016-08-05T12:28:51.155Z,18208
2016-08-05T12:29:51.177Z,19552
2016-08-05T12:30:51.187Z,19744
2016-08-05T12:31:51.186Z,19904
2016-08-05T12:32:51.190Z,20544
2016-08-05T12:33:51.206Z,21920
2016-08-05T12:34:51.203Z,22720
2016-08-05T12:35:51.213Z,23872
2016-08-05T12:36:51.225Z,24800
2016-08-05T12:37:51.230Z,24832
2016-08-05T12:38:51.233Z,24608
2016-08-05T12:39:51.242Z,24608
2016-08-05T12:40:51.251Z,23744
2016-08-05T12:42:06.178Z,23744
2016-08-05T12:42:52.114Z,24480
2016-08-05T12:44:21.559Z,24992
2016-08-05T12:44:51.331Z,24992
2016-08-05T12:45:51.592Z,24768
2016-08-05T12:46:52.241Z,24544
2016-08-05T12:47:51.754Z,24576
2016-08-05T12:48:51.325Z,24224
2016-08-05T12:49:51.318Z,23136
2016-08-05T12:51:07.649Z,21184
2016-08-05T12:51:52.031Z,20096
2016-08-05T12:52:51.699Z,19744
2016-08-05T12:53:51.351Z,20256
2016-08-05T12:54:51.457Z,21056
2016-08-05T12:55:51.369Z,21568
2016-08-05T12:56:51.386Z,22080
2016-08-05T12:57:51.374Z,22560
2016-08-05T12:58:51.383Z,22624
2016-08-05T12:59:51.389Z,22432
2016-08-05T13:00:51.397Z,22176
2016-08-05T13:01:52.591Z,21536
2016-08-05T13:02:53.369Z,21152
2016-08-05T13:03:54.044Z,20960
2016-08-05T13:04:52.876Z,21248
2016-08-05T13:05:52.333Z,21760
2016-08-05T13:06:51.444Z,21760
2016-08-05T13:07:51.452Z,21056
2016-08-05T13:08:52.152Z,20576
2016-08-05T13:09:51.510Z,20288
2016-08-05T13:11:52.606Z,19168
2016-08-05T13:12:53.617Z,18432
2016-08-05T13:13:53.012Z,17696
2016-08-05T13:14:51.501Z,16928
2016-08-05T13:15:51.909Z,17248
2016-08-05T13:16:51.520Z,17984
2016-08-05T13:17:51.525Z,18176
2016-08-05T13:18:51.534Z,19200
2016-08-05T13:19:51.536Z,20256
2016-08-05T13:20:51.541Z,20896
2016-08-05T13:21:51.543Z,21024
2016-08-05T13:22:51.559Z,21184
2016-08-05T13:23:51.564Z,21824
2016-08-05T13:24:51.681Z,22464
2016-08-05T13:25:51.575Z,22880
2016-08-05T13:26:51.588Z,22400
2016-08-05T13:27:51.587Z,22432
2016-08-05T13:28:51.601Z,23136
2016-08-05T13:29:51.602Z,23936
2016-08-05T13:30:51.613Z,24960
2016-08-05T13:31:51.618Z,24640
2016-08-05T13:32:51.625Z,24000
2016-08-05T13:33:51.626Z,24160
2016-08-05T13:34:51.636Z,24192
2016-08-05T13:35:51.643Z,23808
2016-08-05T13:36:51.649Z,22304
2016-08-05T13:37:51.663Z,21088
2016-08-05T13:38:51.672Z,19776
2016-08-05T13:39:51.672Z,19264
2016-08-05T13:40:51.682Z,18720
2016-08-05T13:41:51.682Z,18592
2016-08-05T13:42:51.697Z,18720
2016-08-05T13:43:51.720Z,19200
2016-08-05T13:44:51.715Z,19392
2016-08-05T13:45:51.717Z,19200
2016-08-05T13:46:52.442Z,18752
2016-08-05T13:47:51.730Z,18240
2016-08-05T13:48:51.738Z,17536
2016-08-05T13:49:51.749Z,16448
2016-08-05T13:50:51.758Z,15524
2016-08-05T13:51:51.756Z,14420
2016-08-05T13:52:51.771Z,12908
2016-08-05T13:53:51.788Z,11448
2016-08-05T13:54:51.784Z,10116
2016-08-05T13:55:51.786Z,8968
2016-08-05T13:56:51.793Z,8084
2016-08-05T13:57:51.797Z,7412
2016-08-05T13:58:51.804Z,6900
2016-08-05T13:59:52.313Z,6636
2016-08-05T14:01:52.728Z,6868